Wilmot, Wisconsin
Current Conditions -  °F | °C
As of 5:15 AM on Monday 20 Oct 2014 (Local Time) from KBUU Reporting Station
Clear Clear  
Wind Chill: 41°   Ceiling: Unl
Heat Index: 41°   Visibility: 10mi
Dew Point: 40°   Wind: 3mph
Humidity: 96%   Direction: 220°SW
Pressure: 29.78"   Gusts: NA
Location:  42.51°N, 88.18°W
Report Text: KBUU 201015Z AUTO 22003KT 10SM CLR 05/05 A2978 RMK AO2 T00520046
Loading
Personal Weather Stations






























Interactive Weather Map
Tropical Storm Tracking
New forecast layout! Learn more

10-Day Weather Forecast

Advertisements
Track Severe Weather on mobile